Beowawe, Nevada
Current Conditions -  °F | °C
As of 6:56 PM on Friday 24 Oct 2014 (Local Time) from KEKO Reporting Station
Clear Clear  
Wind Chill: 63°   Ceiling: Unl
Heat Index: 63°   Visibility: 10mi
Dew Point: 21°   Wind: 0mph
Humidity: 20%   Direction: NA
Pressure: 30.02"   Gusts: NA
Location:  40.4796°N, 116.369°W
Report Text: KEKO 250156Z AUTO 00000KT 10SM CLR 17/M06 A3002 RMK AO2 SLP150 T01721061
Loading
Personal Weather Stations






























Interactive Weather Map
Tropical Storm Tracking
New forecast layout! Learn more

10-Day Weather Forecast

Advertisements
Track Severe Weather on mobile